Adairo, Ohio
Current Conditions -  °F | °C
As of 3:52 AM on Saturday 25 Oct 2014 (Local Time) from KMFD Reporting Station
Clear Clear  
Wind Chill: 46°   Ceiling: Unl
Heat Index: 49°   Visibility: 10mi
Dew Point: 42°   Wind: 7mph
Humidity: 77%   Direction: 220°SW
Pressure: 29.97"   Gusts: NA
Location:  40.9484°N, 82.5121°W
Report Text: KMFD 250752Z 22006KT 10SM CLR 09/06 A2997 RMK AO2 SLP148 T00940056
Loading
Personal Weather Stations






























Interactive Weather Map
Tropical Storm Tracking
New forecast layout! Learn more

10-Day Weather Forecast

Advertisements
Track Severe Weather on mobile